Terminal Aerodrome Forecast
Issued by NWS Mt. Holly, NJ

Home | Current Version | Previous Version | Text Only | Print | Product List | Glossary On
Versions: 1 2 3 4 5 6 7 8 9 10 11 12 13 14 15 16 17 18 19 20 21 22 23 24 25 26 27 28 29 30 31 32 33 34
000
FTAK31 PANC 271157 AAA
TAFABE
TAF AMD
PABE 271157Z 2712/2812 15009KT P6SM -RA SCT035 OVC045
     FM271800 18008KT P6SM -RA SCT035 OVC060
      TEMPO 2718/2722 BKN025
     FM280300 20008KT P6SM -SHRA SCT025 OVC060
     FM280900 21007KT P6SM SCT025 BKN060=

USA.gov is the U.S. government's official web portal to all federal, state and local government web resources and services.